createdAt,value
2017-10-25T00:00:55.732Z,1011.77
2017-10-25T00:01:55.650Z,1011.77
2017-10-25T00:02:55.565Z,1011.79
2017-10-25T00:03:55.491Z,1011.78
2017-10-25T00:04:55.407Z,1011.81
2017-10-25T00:05:55.329Z,1011.74
2017-10-25T00:06:55.258Z,1011.77
2017-10-25T00:07:55.169Z,1011.76
2017-10-25T00:08:55.080Z,1011.70
2017-10-25T00:09:55.008Z,1011.70
2017-10-25T00:10:54.925Z,1011.69
2017-10-25T00:11:54.837Z,1011.67
2017-10-25T00:12:54.766Z,1011.66
2017-10-25T00:13:54.675Z,1011.70
2017-10-25T00:14:54.590Z,1011.64
2017-10-25T00:15:54.510Z,1011.66
2017-10-25T00:16:54.434Z,1011.61
2017-10-25T00:17:54.350Z,1011.62
2017-10-25T00:18:54.267Z,1011.67
2017-10-25T00:19:54.187Z,1011.63
2017-10-25T00:20:54.103Z,1011.64
2017-10-25T00:21:54.024Z,1011.62
2017-10-25T00:22:53.944Z,1011.69
2017-10-25T00:23:53.867Z,1011.67
2017-10-25T00:24:53.779Z,1011.66
2017-10-25T00:25:53.697Z,1011.68
2017-10-25T00:26:53.626Z,1011.65
2017-10-25T00:27:53.535Z,1011.68
2017-10-25T00:28:53.469Z,1011.68
2017-10-25T00:29:53.372Z,1011.64
2017-10-25T00:30:53.311Z,1011.64
2017-10-25T00:31:53.215Z,1011.63
2017-10-25T00:32:53.128Z,1011.60
2017-10-25T00:33:53.057Z,1011.58
2017-10-25T00:34:53.021Z,1011.56
2017-10-25T00:35:52.891Z,1011.56
2017-10-25T00:36:52.810Z,1011.56
2017-10-25T00:37:52.724Z,1011.56
2017-10-25T00:38:52.640Z,1011.55
2017-10-25T00:39:52.559Z,1011.59
2017-10-25T00:40:52.484Z,1011.63
2017-10-25T00:41:52.399Z,1011.58
2017-10-25T00:42:52.316Z,1011.59
2017-10-25T00:43:52.236Z,1011.56
2017-10-25T00:44:52.178Z,1011.52
2017-10-25T00:45:52.077Z,1011.54
2017-10-25T00:46:51.993Z,1011.53
2017-10-25T00:47:51.912Z,1011.49
2017-10-25T00:48:51.831Z,1011.49
2017-10-25T00:49:51.745Z,1011.49
2017-10-25T00:50:51.666Z,1011.50
2017-10-25T00:51:51.589Z,1011.45
2017-10-25T00:52:51.511Z,1011.47
2017-10-25T00:53:51.425Z,1011.50
2017-10-25T00:54:51.353Z,1011.47
2017-10-25T00:55:51.276Z,1011.46
2017-10-25T00:56:51.179Z,1011.47
2017-10-25T00:57:51.101Z,1011.48
2017-10-25T00:58:51.023Z,1011.48
2017-10-25T00:59:50.948Z,1011.51
2017-10-25T01:00:50.861Z,1011.52
2017-10-25T01:01:50.775Z,1011.50
2017-10-25T01:02:50.712Z,1011.53
2017-10-25T01:03:50.620Z,1011.53
2017-10-25T01:04:50.536Z,1011.52
2017-10-25T01:05:50.459Z,1011.51
2017-10-25T01:06:50.373Z,1011.49
2017-10-25T01:07:50.297Z,1011.52
2017-10-25T01:08:50.225Z,1011.57
2017-10-25T01:09:50.138Z,1011.55
2017-10-25T01:10:50.051Z,1011.54
2017-10-25T01:11:49.973Z,1011.51
2017-10-25T01:12:49.888Z,1011.50
2017-10-25T01:13:49.805Z,1011.49
2017-10-25T01:14:49.719Z,1011.49
2017-10-25T01:15:49.643Z,1011.47
2017-10-25T01:16:49.560Z,1011.46
2017-10-25T01:17:49.499Z,1011.46
2017-10-25T01:18:49.403Z,1011.51
2017-10-25T01:19:49.336Z,1011.46
2017-10-25T01:20:49.240Z,1011.45
2017-10-25T01:21:49.162Z,1011.46
2017-10-25T01:22:49.080Z,1011.45
2017-10-25T01:23:49.008Z,1011.44
2017-10-25T01:24:48.921Z,1011.43
2017-10-25T01:25:48.828Z,1011.40
2017-10-25T01:26:48.753Z,1011.47
2017-10-25T01:27:48.677Z,1011.43
2017-10-25T01:28:48.591Z,1011.43
2017-10-25T01:29:48.508Z,1011.46
2017-10-25T01:30:48.429Z,1011.40
2017-10-25T01:31:48.364Z,1011.40
2017-10-25T01:32:48.267Z,1011.40
2017-10-25T01:33:48.180Z,1011.38
2017-10-25T01:34:48.107Z,1011.39
2017-10-25T01:35:48.027Z,1011.36
2017-10-25T01:36:47.957Z,1011.39
2017-10-25T01:37:47.874Z,1011.40
2017-10-25T01:38:47.783Z,1011.38
2017-10-25T01:39:47.714Z,1011.44
2017-10-25T01:40:47.621Z,1011.45
2017-10-25T01:41:47.541Z,1011.42
2017-10-25T01:42:47.461Z,1011.48
2017-10-25T01:43:47.389Z,1011.47
2017-10-25T01:44:47.298Z,1011.50
2017-10-25T01:45:47.222Z,1011.48
2017-10-25T01:46:47.165Z,1011.49
2017-10-25T01:47:47.063Z,1011.48
2017-10-25T01:48:46.975Z,1011.52
2017-10-25T01:49:46.905Z,1011.53
2017-10-25T01:50:46.817Z,1011.52
2017-10-25T01:51:46.752Z,1011.53
2017-10-25T01:52:46.649Z,1011.51
2017-10-25T01:53:46.571Z,1011.51
2017-10-25T01:54:46.488Z,1011.48
2017-10-25T01:55:46.410Z,1011.57
2017-10-25T01:56:46.326Z,1011.54
2017-10-25T01:57:46.256Z,1011.54
2017-10-25T01:58:46.176Z,1011.54
2017-10-25T01:59:46.090Z,1011.51
2017-10-25T02:00:46.009Z,1011.48
2017-10-25T02:01:45.923Z,1011.47
2017-10-25T02:02:45.841Z,1011.51
2017-10-25T02:03:45.765Z,1011.47
2017-10-25T02:04:45.689Z,1011.50
2017-10-25T02:05:45.630Z,1011.43
2017-10-25T02:06:45.519Z,1011.42
2017-10-25T02:07:45.440Z,1011.44
2017-10-25T02:08:45.364Z,1011.47
2017-10-25T02:09:45.278Z,1011.40
2017-10-25T02:10:45.209Z,1011.42
2017-10-25T02:11:45.123Z,1011.42
2017-10-25T02:12:45.041Z,1011.48
2017-10-25T02:13:44.955Z,1011.43
2017-10-25T02:14:44.872Z,1011.46
2017-10-25T02:15:44.797Z,1011.47
2017-10-25T02:16:44.716Z,1011.43
2017-10-25T02:17:44.637Z,1011.48
2017-10-25T02:18:44.551Z,1011.45
2017-10-25T02:19:44.466Z,1011.43
2017-10-25T02:20:44.392Z,1011.42
2017-10-25T02:21:44.314Z,1011.40
2017-10-25T02:22:44.231Z,1011.39
2017-10-25T02:23:44.149Z,1011.40
2017-10-25T02:24:44.070Z,1011.40
2017-10-25T02:25:43.985Z,1011.36
2017-10-25T02:26:43.914Z,1011.32
2017-10-25T02:27:43.844Z,1011.31
2017-10-25T02:28:43.744Z,1011.31
2017-10-25T02:29:43.664Z,1011.29
2017-10-25T02:30:43.579Z,1011.32
2017-10-25T02:31:43.500Z,1011.31
2017-10-25T02:32:43.424Z,1011.31
2017-10-25T02:33:43.345Z,1011.30
2017-10-25T02:34:43.255Z,1011.29
2017-10-25T02:35:43.176Z,1011.27
2017-10-25T02:36:43.100Z,1011.28
2017-10-25T02:37:43.019Z,1011.28
2017-10-25T02:38:42.947Z,1011.24
2017-10-25T02:39:42.862Z,1011.28
2017-10-25T02:40:42.791Z,1011.27
2017-10-25T02:41:42.701Z,1011.26
2017-10-25T02:42:42.625Z,1011.22
2017-10-25T02:43:42.539Z,1011.24
2017-10-25T02:44:42.449Z,1011.26
2017-10-25T02:45:42.378Z,1011.28
2017-10-25T02:46:42.287Z,1011.25
2017-10-25T02:47:42.225Z,1011.28
2017-10-25T02:48:42.122Z,1011.26
2017-10-25T02:49:42.047Z,1011.24
2017-10-25T02:50:41.964Z,1011.25
2017-10-25T02:51:41.879Z,1011.25
2017-10-25T02:52:41.800Z,1011.25
2017-10-25T02:53:41.725Z,1011.26
2017-10-25T02:54:41.681Z,1011.23
2017-10-25T02:55:41.569Z,1011.25
2017-10-25T02:56:41.479Z,1011.26
2017-10-25T02:57:41.395Z,1011.25
2017-10-25T02:58:41.318Z,1011.25
2017-10-25T02:59:41.260Z,1011.23
2017-10-25T03:00:41.156Z,1011.23
2017-10-25T03:01:41.070Z,1011.23
2017-10-25T03:02:41.005Z,1011.24
2017-10-25T03:03:40.919Z,1011.23
2017-10-25T03:04:40.835Z,1011.24
2017-10-25T03:05:40.749Z,1011.24
2017-10-25T03:06:40.675Z,1011.22
2017-10-25T03:07:40.604Z,1011.24
2017-10-25T03:08:40.525Z,1011.22
2017-10-25T03:09:40.431Z,1011.13
2017-10-25T03:10:40.349Z,1011.14
2017-10-25T03:11:40.263Z,1011.13
2017-10-25T03:12:40.183Z,1011.15
2017-10-25T03:13:40.103Z,1011.13
2017-10-25T03:14:40.031Z,1011.14
2017-10-25T03:15:39.944Z,1011.11
2017-10-25T03:16:39.863Z,1011.09
2017-10-25T03:17:39.780Z,1011.10
2017-10-25T03:18:39.697Z,1011.05
2017-10-25T03:19:39.627Z,1011.07
2017-10-25T03:20:39.533Z,1011.06
2017-10-25T03:21:39.459Z,1011.05
2017-10-25T03:22:39.380Z,1011.04
2017-10-25T03:23:39.306Z,1011.06
2017-10-25T03:24:39.218Z,1011.06
2017-10-25T03:25:39.133Z,1011.07
2017-10-25T03:26:39.052Z,1011.05
2017-10-25T03:27:38.971Z,1011.10
2017-10-25T03:28:38.894Z,1011.09
2017-10-25T03:29:38.820Z,1011.11
2017-10-25T03:30:38.734Z,1011.08
2017-10-25T03:31:38.646Z,1011.14
2017-10-25T03:32:38.564Z,1011.10
2017-10-25T03:33:38.483Z,1011.13
2017-10-25T03:34:38.404Z,1011.15
2017-10-25T03:35:38.324Z,1011.14
2017-10-25T03:36:38.246Z,1011.13
2017-10-25T03:37:38.162Z,1011.08
2017-10-25T03:38:38.082Z,1011.16
2017-10-25T03:39:37.998Z,1011.15
2017-10-25T03:40:37.917Z,1011.14
2017-10-25T03:41:37.842Z,1011.12
2017-10-25T03:42:37.760Z,1011.14
2017-10-25T03:43:37.680Z,1011.20
2017-10-25T03:44:37.598Z,1011.19
2017-10-25T03:45:37.514Z,1011.20
2017-10-25T03:46:37.446Z,1011.27
2017-10-25T03:47:37.353Z,1011.20
2017-10-25T03:48:37.272Z,1011.25
2017-10-25T03:49:37.198Z,1011.30
2017-10-25T03:50:37.116Z,1011.27
2017-10-25T03:51:37.033Z,1011.25
2017-10-25T03:52:36.952Z,1011.18
2017-10-25T03:53:36.870Z,1011.15
2017-10-25T03:54:36.786Z,1011.14
2017-10-25T03:55:36.707Z,1011.16
2017-10-25T03:56:36.626Z,1011.13
2017-10-25T03:57:36.547Z,1011.14
2017-10-25T03:58:36.461Z,1011.12
2017-10-25T03:59:36.383Z,1011.10
2017-10-25T04:00:36.307Z,1011.08
2017-10-25T04:01:36.223Z,1011.07
2017-10-25T04:02:36.136Z,1011.01
2017-10-25T04:03:36.063Z,1011.00
2017-10-25T04:04:35.977Z,1010.99
2017-10-25T04:05:35.904Z,1010.98
2017-10-25T04:06:35.820Z,1010.99
2017-10-25T04:07:35.739Z,1011.00
2017-10-25T04:08:35.664Z,1011.01
2017-10-25T04:09:35.586Z,1011.04
2017-10-25T04:10:35.506Z,1011.07
2017-10-25T04:11:35.424Z,1011.05
2017-10-25T04:12:35.331Z,1011.04
2017-10-25T04:13:35.246Z,1011.02
2017-10-25T04:14:35.166Z,1011.03
2017-10-25T04:15:35.090Z,1011.02
2017-10-25T04:16:35.008Z,1011.01
2017-10-25T04:17:34.941Z,1011.02
2017-10-25T04:18:34.861Z,1011.02
2017-10-25T04:19:34.768Z,1011.03
2017-10-25T04:20:34.681Z,1011.03
2017-10-25T04:21:34.607Z,1011.05
2017-10-25T04:22:34.534Z,1011.03
2017-10-25T04:23:34.439Z,1011.02
2017-10-25T04:24:34.364Z,1010.97
2017-10-25T04:25:34.277Z,1010.91
2017-10-25T04:26:34.199Z,1010.82
2017-10-25T04:27:34.115Z,1010.79
2017-10-25T04:28:34.031Z,1010.79
2017-10-25T04:29:33.955Z,1010.84
2017-10-25T04:30:33.905Z,1010.86
2017-10-25T04:31:33.792Z,1010.81
2017-10-25T04:32:33.704Z,1010.80
2017-10-25T04:33:33.625Z,1010.78
2017-10-25T04:34:33.548Z,1010.74
2017-10-25T04:35:33.466Z,1010.80
2017-10-25T04:36:33.381Z,1010.79
2017-10-25T04:37:33.302Z,1010.84
2017-10-25T04:38:33.227Z,1010.85
2017-10-25T04:39:33.148Z,1010.84
2017-10-25T04:40:33.070Z,1010.86
2017-10-25T04:41:32.979Z,1010.85
2017-10-25T04:42:32.895Z,1010.85
2017-10-25T04:43:32.812Z,1010.83
2017-10-25T04:44:32.735Z,1010.85
2017-10-25T04:45:32.654Z,1010.86
2017-10-25T04:46:32.573Z,1010.88
2017-10-25T04:47:32.498Z,1010.86
2017-10-25T04:48:32.421Z,1010.81
2017-10-25T04:49:32.342Z,1010.78
2017-10-25T04:50:32.248Z,1010.79
2017-10-25T04:51:32.167Z,1010.79
2017-10-25T04:52:32.089Z,1010.82
2017-10-25T04:53:32.027Z,1010.80
2017-10-25T04:54:31.921Z,1010.81
2017-10-25T04:55:31.844Z,1010.81
2017-10-25T04:56:31.759Z,1010.81
2017-10-25T04:57:31.681Z,1010.77
2017-10-25T04:58:31.600Z,1010.74
2017-10-25T04:59:31.520Z,1010.70
2017-10-25T05:00:31.469Z,1010.73
2017-10-25T05:01:31.354Z,1010.73
2017-10-25T05:02:31.271Z,1010.79
2017-10-25T05:03:31.193Z,1010.73
2017-10-25T05:04:31.119Z,1010.76
2017-10-25T05:05:31.037Z,1010.73
2017-10-25T05:06:30.946Z,1010.75
2017-10-25T05:07:30.896Z,1010.73
2017-10-25T05:08:30.789Z,1010.72
2017-10-25T05:09:30.712Z,1010.70
2017-10-25T05:10:30.627Z,1010.68
2017-10-25T05:11:30.548Z,1010.70
2017-10-25T05:12:30.484Z,1010.71
2017-10-25T05:13:30.385Z,1010.69
2017-10-25T05:14:30.309Z,1010.67
2017-10-25T05:15:30.220Z,1010.67
2017-10-25T05:16:30.145Z,1010.68
2017-10-25T05:17:30.071Z,1010.68
2017-10-25T05:18:29.981Z,1010.69
2017-10-25T05:19:29.900Z,1010.70
2017-10-25T05:20:29.812Z,1010.67
2017-10-25T05:21:29.740Z,1010.70
2017-10-25T05:22:29.659Z,1010.69
2017-10-25T05:23:29.580Z,1010.67
2017-10-25T05:24:29.488Z,1010.67
2017-10-25T05:25:29.411Z,1010.71
2017-10-25T05:26:29.335Z,1010.70
2017-10-25T05:27:29.255Z,1010.72
2017-10-25T05:28:29.189Z,1010.69
2017-10-25T05:29:29.092Z,1010.72
2017-10-25T05:30:29.007Z,1010.75
2017-10-25T05:31:28.922Z,1010.73
2017-10-25T05:32:28.843Z,1010.78
2017-10-25T05:33:28.764Z,1010.79
2017-10-25T05:34:28.689Z,1010.78
2017-10-25T05:35:28.611Z,1010.80
2017-10-25T05:36:28.538Z,1010.75
2017-10-25T05:37:28.441Z,1010.74
2017-10-25T05:38:28.363Z,1010.71
2017-10-25T05:39:28.282Z,1010.70
2017-10-25T05:40:28.196Z,1010.73
2017-10-25T05:41:28.115Z,1010.70
2017-10-25T05:42:28.042Z,1010.70
2017-10-25T05:43:27.954Z,1010.72
2017-10-25T05:44:27.874Z,1010.75
2017-10-25T05:45:27.790Z,1010.76
2017-10-25T05:46:27.726Z,1010.77
2017-10-25T05:47:27.636Z,1010.78
2017-10-25T05:48:27.549Z,1010.80
2017-10-25T05:49:27.469Z,1010.79
2017-10-25T05:50:27.422Z,1010.76
2017-10-25T05:51:27.307Z,1010.80
2017-10-25T05:52:27.229Z,1010.83
2017-10-25T05:53:27.153Z,1010.83
2017-10-25T05:54:27.073Z,1010.82
2017-10-25T05:55:26.999Z,1010.83
2017-10-25T05:56:26.898Z,1010.84
2017-10-25T05:57:26.833Z,1010.82
2017-10-25T05:58:26.744Z,1010.81
2017-10-25T05:59:26.673Z,1010.85
2017-10-25T06:00:26.581Z,1010.87
2017-10-25T06:01:26.494Z,1010.86
2017-10-25T06:02:26.411Z,1010.86
2017-10-25T06:03:26.335Z,1010.87
2017-10-25T06:04:26.253Z,1010.83
2017-10-25T06:05:26.179Z,1010.87
2017-10-25T06:06:26.088Z,1010.86
2017-10-25T06:07:26.019Z,1010.83
2017-10-25T06:08:25.922Z,1010.89
2017-10-25T06:09:25.840Z,1010.93
2017-10-25T06:10:25.764Z,1010.92
2017-10-25T06:11:25.693Z,1010.92
2017-10-25T06:12:25.599Z,1010.93
2017-10-25T06:13:25.532Z,1010.96
2017-10-25T06:14:25.453Z,1010.93
2017-10-25T06:15:25.360Z,1010.97
2017-10-25T06:16:25.282Z,1010.94
2017-10-25T06:17:25.198Z,1010.99
2017-10-25T06:18:25.122Z,1010.99
2017-10-25T06:19:25.029Z,1010.96
2017-10-25T06:20:24.950Z,1010.96
2017-10-25T06:21:24.875Z,1010.95
2017-10-25T06:22:24.805Z,1010.98
2017-10-25T06:23:24.714Z,1010.93
2017-10-25T06:24:24.633Z,1010.95
2017-10-25T06:25:24.552Z,1010.95
2017-10-25T06:26:24.483Z,1010.99
2017-10-25T06:27:24.386Z,1010.99
2017-10-25T06:28:24.305Z,1010.96
2017-10-25T06:29:24.234Z,1010.98
2017-10-25T06:30:24.144Z,1011.02
2017-10-25T06:31:24.069Z,1011.07
2017-10-25T06:32:23.991Z,1011.08
2017-10-25T06:33:23.895Z,1011.14
2017-10-25T06:34:23.817Z,1011.12
2017-10-25T06:35:23.741Z,1011.17
2017-10-25T06:36:23.656Z,1011.16
2017-10-25T06:37:23.572Z,1011.18
2017-10-25T06:38:23.498Z,1011.16
2017-10-25T06:39:23.409Z,1011.21
2017-10-25T06:40:23.322Z,1011.20
2017-10-25T06:41:23.249Z,1011.21
2017-10-25T06:42:23.165Z,1011.23
2017-10-25T06:43:23.089Z,1011.23
2017-10-25T06:44:23.000Z,1011.26
2017-10-25T06:45:22.920Z,1011.28
2017-10-25T06:46:22.844Z,1011.28
2017-10-25T06:47:22.762Z,1011.29
2017-10-25T06:48:22.676Z,1011.32
2017-10-25T06:49:22.613Z,1011.24
2017-10-25T06:50:22.512Z,1011.25
2017-10-25T06:51:22.479Z,1011.27
2017-10-25T06:52:22.356Z,1011.26
2017-10-25T06:53:22.276Z,1011.27
2017-10-25T06:54:22.189Z,1011.33
2017-10-25T06:55:22.123Z,1011.36
2017-10-25T06:56:22.026Z,1011.38
2017-10-25T06:57:21.947Z,1011.37
2017-10-25T06:58:21.886Z,1011.43
2017-10-25T06:59:21.779Z,1011.47
2017-10-25T07:00:21.701Z,1011.48
2017-10-25T07:01:21.622Z,1011.49
2017-10-25T07:02:21.542Z,1011.53
2017-10-25T07:03:21.474Z,1011.54
2017-10-25T07:04:21.384Z,1011.51
2017-10-25T07:05:21.299Z,1011.52
2017-10-25T07:06:21.231Z,1011.50
2017-10-25T07:07:21.141Z,1011.48
2017-10-25T07:08:21.047Z,1011.54
2017-10-25T07:09:20.966Z,1011.48
2017-10-25T07:10:20.898Z,1011.48
2017-10-25T07:11:20.812Z,1011.47
2017-10-25T07:12:20.724Z,1011.51
2017-10-25T07:13:20.637Z,1011.53
2017-10-25T07:14:20.559Z,1011.52
2017-10-25T07:15:20.477Z,1011.55
2017-10-25T07:16:20.394Z,1011.54
2017-10-25T07:17:20.317Z,1011.56
2017-10-25T07:18:20.232Z,1011.56
2017-10-25T07:19:20.158Z,1011.57
2017-10-25T07:20:20.073Z,1011.58
2017-10-25T07:21:19.994Z,1011.56
2017-10-25T07:22:19.907Z,1011.60
2017-10-25T07:23:19.831Z,1011.60
2017-10-25T07:24:19.757Z,1011.60
2017-10-25T07:25:19.672Z,1011.60
2017-10-25T07:26:19.590Z,1011.61
2017-10-25T07:27:19.511Z,1011.61
2017-10-25T07:28:19.418Z,1011.66
2017-10-25T07:29:19.336Z,1011.61
2017-10-25T07:30:19.254Z,1011.59
2017-10-25T07:31:19.174Z,1011.60
2017-10-25T07:32:19.087Z,1011.58
2017-10-25T07:33:19.005Z,1011.64
2017-10-25T07:34:18.939Z,1011.60
2017-10-25T07:35:18.853Z,1011.60
2017-10-25T07:36:18.759Z,1011.59
2017-10-25T07:37:18.684Z,1011.63
2017-10-25T07:38:18.602Z,1011.64
2017-10-25T07:39:18.531Z,1011.63
2017-10-25T07:40:18.437Z,1011.65
2017-10-25T07:41:18.413Z,1011.64
2017-10-25T07:42:18.276Z,1011.64
2017-10-25T07:43:18.191Z,1011.71
2017-10-25T07:44:18.125Z,1011.74
2017-10-25T07:45:18.036Z,1011.75
2017-10-25T07:46:17.949Z,1011.70
2017-10-25T07:47:17.865Z,1011.71
2017-10-25T07:48:17.779Z,1011.77
2017-10-25T07:49:17.696Z,1011.76
2017-10-25T07:50:17.616Z,1011.76
2017-10-25T07:51:17.535Z,1011.75
2017-10-25T07:52:17.464Z,1011.73
2017-10-25T07:53:17.372Z,1011.74
2017-10-25T07:54:17.292Z,1011.71
2017-10-25T07:55:17.215Z,1011.76
2017-10-25T07:56:17.124Z,1011.71
2017-10-25T07:57:17.044Z,1011.76
2017-10-25T07:58:16.965Z,1011.72
2017-10-25T07:59:16.889Z,1011.72
2017-10-25T08:00:16.797Z,1011.67
2017-10-25T08:01:16.714Z,1011.67
2017-10-25T08:02:16.657Z,1011.65
2017-10-25T08:03:16.555Z,1011.67
2017-10-25T08:04:16.468Z,1011.64
2017-10-25T08:05:16.396Z,1011.65
2017-10-25T08:06:16.312Z,1011.60
2017-10-25T08:07:16.236Z,1011.63
2017-10-25T08:08:16.170Z,1011.65
2017-10-25T08:09:16.062Z,1011.63
2017-10-25T08:10:15.984Z,1011.67
2017-10-25T08:11:15.909Z,1011.69
2017-10-25T08:12:15.826Z,1011.68
2017-10-25T08:13:15.739Z,1011.72
2017-10-25T08:14:15.658Z,1011.63
2017-10-25T08:15:15.580Z,1011.63
2017-10-25T08:16:15.490Z,1011.63
2017-10-25T08:17:15.420Z,1011.61
2017-10-25T08:18:15.330Z,1011.65
2017-10-25T08:19:15.264Z,1011.58
2017-10-25T08:20:15.168Z,1011.61
2017-10-25T08:21:15.092Z,1011.67
2017-10-25T08:22:15.003Z,1011.70
2017-10-25T08:23:14.923Z,1011.72
2017-10-25T08:24:14.842Z,1011.85
2017-10-25T08:25:14.760Z,1011.87
2017-10-25T08:26:14.694Z,1011.85
2017-10-25T08:27:14.603Z,1011.87
2017-10-25T08:28:14.519Z,1011.97
2017-10-25T08:29:14.433Z,1012.00
2017-10-25T08:30:14.359Z,1011.91
2017-10-25T08:31:14.276Z,1011.95
2017-10-25T08:32:14.198Z,1011.94
2017-10-25T08:33:14.112Z,1012.02
2017-10-25T08:34:14.041Z,1012.01
2017-10-25T08:35:13.957Z,1012.02
2017-10-25T08:36:13.876Z,1012.09
2017-10-25T08:37:13.817Z,1012.05
2017-10-25T08:38:13.712Z,1012.05
2017-10-25T08:39:13.642Z,1012.06
2017-10-25T08:40:13.569Z,1012.08
2017-10-25T08:41:13.472Z,1012.13
2017-10-25T08:42:13.401Z,1012.09
2017-10-25T08:43:13.315Z,1012.12
2017-10-25T08:44:13.250Z,1012.19
2017-10-25T08:45:13.159Z,1012.26
2017-10-25T08:46:13.081Z,1012.33
2017-10-25T08:47:13.043Z,1012.58
2017-10-25T08:48:12.925Z,1012.68
2017-10-25T08:49:12.838Z,1012.75
2017-10-25T08:50:12.775Z,1012.68
2017-10-25T08:51:12.703Z,1012.77
2017-10-25T08:52:12.602Z,1012.57
2017-10-25T08:53:12.529Z,1012.28
2017-10-25T08:54:12.481Z,1012.19
2017-10-25T08:55:12.372Z,1012.46
2017-10-25T08:56:13.033Z,1012.71
2017-10-25T08:57:12.226Z,1012.60
2017-10-25T08:58:12.144Z,1012.60
2017-10-25T08:59:12.075Z,1012.55
2017-10-25T09:00:11.986Z,1012.57
2017-10-25T09:01:11.919Z,1012.77
2017-10-25T09:02:11.839Z,1012.74
2017-10-25T09:03:11.800Z,1012.50
2017-10-25T09:04:11.687Z,1012.60
2017-10-25T09:05:11.613Z,1012.26
2017-10-25T09:06:11.544Z,1012.54
2017-10-25T09:07:11.467Z,1012.55
2017-10-25T09:08:11.395Z,1012.34
2017-10-25T09:09:11.310Z,1012.41
2017-10-25T09:10:11.246Z,1012.77
2017-10-25T09:11:11.169Z,1012.29
2017-10-25T09:12:11.088Z,1012.19
2017-10-25T09:13:11.016Z,1012.04
2017-10-25T09:14:10.937Z,1012.00
2017-10-25T09:15:10.888Z,1011.96
2017-10-25T09:16:10.788Z,1012.01
2017-10-25T09:17:10.719Z,1012.11
2017-10-25T09:18:10.623Z,1012.09
2017-10-25T09:19:10.546Z,1012.12
2017-10-25T09:20:10.473Z,1012.07
2017-10-25T09:21:10.390Z,1012.07
2017-10-25T09:22:10.324Z,1012.05
2017-10-25T09:23:10.252Z,1012.07
2017-10-25T09:24:10.154Z,1012.07
2017-10-25T09:25:10.080Z,1012.12
2017-10-25T09:26:10.004Z,1012.08
2017-10-25T09:27:09.928Z,1012.16
2017-10-25T09:28:09.857Z,1012.15
2017-10-25T09:29:09.778Z,1012.26
2017-10-25T09:30:09.697Z,1012.52
2017-10-25T09:31:09.608Z,1012.67
2017-10-25T09:32:09.530Z,1012.37
2017-10-25T09:33:09.492Z,1012.31
2017-10-25T09:34:09.380Z,1012.53
2017-10-25T09:35:09.305Z,1012.33
2017-10-25T09:36:09.287Z,1012.30
2017-10-25T09:37:09.180Z,1012.50
2017-10-25T09:38:09.096Z,1012.46
2017-10-25T09:39:09.011Z,1012.61
2017-10-25T09:40:08.921Z,1012.71
2017-10-25T09:41:08.840Z,1012.38
2017-10-25T09:42:08.778Z,1012.18
2017-10-25T09:43:08.701Z,1012.13
2017-10-25T09:44:08.614Z,1012.16
2017-10-25T09:45:08.535Z,1012.23
2017-10-25T09:46:08.463Z,1012.13
2017-10-25T09:47:08.382Z,1012.29
2017-10-25T09:48:08.301Z,1012.52
2017-10-25T09:49:08.232Z,1012.73
2017-10-25T09:50:08.161Z,1012.90
2017-10-25T09:51:08.089Z,1013.37
2017-10-25T09:52:07.999Z,1013.69
2017-10-25T09:53:07.921Z,1013.74
2017-10-25T09:54:07.845Z,1013.95
2017-10-25T09:55:07.768Z,1014.02
2017-10-25T09:56:07.699Z,1014.07
2017-10-25T09:57:07.634Z,1014.12
2017-10-25T09:58:07.547Z,1014.11
2017-10-25T09:59:07.481Z,1014.28
2017-10-25T10:00:07.403Z,1014.49
2017-10-25T10:01:07.330Z,1014.66
2017-10-25T10:02:07.258Z,1014.86
2017-10-25T10:03:07.198Z,1014.80
2017-10-25T10:04:07.122Z,1015.15
2017-10-25T10:05:07.046Z,1015.48
2017-10-25T10:06:06.972Z,1015.34
2017-10-25T10:07:06.906Z,1016.18
2017-10-25T10:08:06.837Z,1015.80
2017-10-25T10:09:06.773Z,1015.66
2017-10-25T10:10:06.698Z,1017.18
2017-10-25T10:11:06.629Z,1017.66
2017-10-25T10:12:06.549Z,1016.58
2017-10-25T10:13:06.480Z,1016.38
2017-10-25T10:14:06.414Z,1014.95
2017-10-25T10:15:06.345Z,1013.83
2017-10-25T10:16:06.287Z,1014.75
2017-10-25T10:17:06.210Z,1015.99
2017-10-25T10:18:06.133Z,1016.50
2017-10-25T10:19:06.061Z,1017.49
2017-10-25T10:20:05.998Z,1017.73
2017-10-25T10:21:05.916Z,1017.67
2017-10-25T10:22:05.845Z,1019.47
2017-10-25T10:23:05.787Z,1016.13
2017-10-25T10:24:05.708Z,1019.13
2017-10-25T10:25:05.636Z,1015.68
2017-10-25T10:26:05.575Z,1020.48
2017-10-25T10:27:05.500Z,1018.95
2017-10-25T10:28:05.440Z,1021.22
2017-10-25T10:29:05.371Z,1020.88
2017-10-25T10:30:05.291Z,1021.54
2017-10-25T10:31:05.228Z,1021.76
2017-10-25T10:32:05.158Z,1021.73
2017-10-25T10:33:05.085Z,1022.18
2017-10-25T10:34:05.017Z,1022.24
2017-10-25T10:35:04.959Z,1022.16
2017-10-25T10:36:04.885Z,1022.23
2017-10-25T10:37:04.819Z,1022.23
2017-10-25T10:38:04.772Z,1021.76
2017-10-25T10:39:04.685Z,1022.12
2017-10-25T10:40:04.628Z,1021.91
2017-10-25T10:41:04.539Z,1021.80
2017-10-25T10:42:04.477Z,1018.79
2017-10-25T10:43:04.406Z,1014.13
2017-10-25T10:44:04.339Z,1019.14
2017-10-25T10:45:04.296Z,1020.68
2017-10-25T10:46:04.212Z,1020.69
2017-10-25T10:47:04.131Z,1020.60
2017-10-25T10:48:04.065Z,1020.48
2017-10-25T10:49:03.999Z,1020.34
2017-10-25T10:50:03.931Z,1019.80
2017-10-25T10:51:03.865Z,1018.93
2017-10-25T10:52:03.793Z,1017.95
2017-10-25T10:53:03.723Z,1016.85
2017-10-25T10:54:03.657Z,1015.86
2017-10-25T10:55:03.592Z,1014.93
2017-10-25T10:56:03.518Z,1014.08
2017-10-25T10:57:03.449Z,1013.32
2017-10-25T10:58:03.387Z,1012.80
2017-10-25T10:59:03.310Z,1012.44
2017-10-25T11:00:03.239Z,1012.38
2017-10-25T11:01:03.194Z,1012.38
2017-10-25T11:02:03.110Z,1012.39
2017-10-25T11:03:03.044Z,1012.31
2017-10-25T11:04:02.977Z,1013.65
2017-10-25T11:05:02.933Z,1016.01
2017-10-25T11:06:02.840Z,1016.85
2017-10-25T11:07:02.785Z,1016.85
2017-10-25T11:08:02.714Z,1016.83
2017-10-25T11:09:02.638Z,1016.84
2017-10-25T11:10:02.575Z,1016.55
2017-10-25T11:11:02.509Z,1016.47
2017-10-25T11:12:02.489Z,1016.28
2017-10-25T11:13:02.378Z,1016.10
2017-10-25T11:14:02.310Z,1015.94
2017-10-25T11:15:02.260Z,1015.80
2017-10-25T11:16:02.186Z,1015.51
2017-10-25T11:17:02.134Z,1015.40
2017-10-25T11:18:02.050Z,1015.19
2017-10-25T11:19:01.990Z,1015.00
2017-10-25T11:20:01.927Z,1014.78
2017-10-25T11:21:01.845Z,1014.55
2017-10-25T11:22:01.780Z,1014.29
2017-10-25T11:23:01.712Z,1014.04
2017-10-25T11:24:01.650Z,1013.86
2017-10-25T11:25:01.579Z,1013.68
2017-10-25T11:26:01.529Z,1013.44
2017-10-25T11:27:01.452Z,1013.31
2017-10-25T11:28:01.391Z,1013.17
2017-10-25T11:29:01.294Z,1013.04
2017-10-25T11:30:01.241Z,1012.94
2017-10-25T11:31:01.163Z,1012.85
2017-10-25T11:32:01.110Z,1012.69
2017-10-25T11:33:01.041Z,1012.64
2017-10-25T11:34:00.969Z,1012.55
2017-10-25T11:35:00.892Z,1012.46
2017-10-25T11:36:00.814Z,1012.41
2017-10-25T11:37:00.741Z,1012.45
2017-10-25T11:38:00.678Z,1012.51
2017-10-25T11:39:00.595Z,1012.46
2017-10-25T11:40:00.556Z,1012.45
2017-10-25T11:41:00.462Z,1012.31
2017-10-25T11:42:00.402Z,1012.08
2017-10-25T11:43:00.310Z,1011.97
2017-10-25T11:44:00.228Z,1011.98
2017-10-25T11:45:00.150Z,1011.96
2017-10-25T11:46:00.074Z,1011.93
2017-10-25T11:46:59.994Z,1012.01
2017-10-25T11:47:59.930Z,1012.01
2017-10-25T11:48:59.847Z,1012.00
2017-10-25T11:49:59.777Z,1012.05
2017-10-25T11:50:59.703Z,1012.10
2017-10-25T11:51:59.626Z,1012.16
2017-10-25T11:52:59.585Z,1012.11
2017-10-25T11:53:59.478Z,1012.17
2017-10-25T11:54:59.408Z,1012.13
2017-10-25T11:55:59.329Z,1012.14
2017-10-25T11:56:59.262Z,1012.13
2017-10-25T11:57:59.176Z,1012.02
2017-10-25T11:58:59.097Z,1012.00
2017-10-25T11:59:59.026Z,1011.87
2017-10-25T12:00:58.959Z,1011.86
2017-10-25T12:01:58.883Z,1011.88
2017-10-25T12:02:58.800Z,1011.85
2017-10-25T12:03:58.718Z,1011.73
2017-10-25T12:04:58.654Z,1011.74